createdAt,value
2016-03-22T08:52:23.107Z,3104
2016-03-22T08:53:21.843Z,2968
2016-03-22T08:54:21.472Z,2880
2016-03-22T08:55:28.802Z,2680
2016-03-22T08:56:23.398Z,2808
2016-03-22T08:57:21.402Z,2556
2016-03-22T08:58:21.076Z,2296
2016-03-22T08:59:21.188Z,2328
2016-03-22T09:00:21.222Z,2296
2016-03-22T09:02:21.102Z,1952
2016-03-22T09:03:23.729Z,2584
2016-03-22T09:04:21.045Z,3056
2016-03-22T09:05:22.376Z,3024
2016-03-22T09:06:20.863Z,2768
2016-03-22T09:07:20.894Z,2952
2016-03-22T09:08:21.334Z,3424
2016-03-22T09:09:49.822Z,3272
2016-03-22T09:11:24.733Z,2920
2016-03-22T09:12:20.798Z,3012
2016-03-22T09:13:28.458Z,3304
2016-03-22T09:14:21.335Z,3264
2016-03-22T09:15:20.947Z,3072
2016-03-22T09:16:22.558Z,2892
2016-03-22T09:17:20.577Z,3016
2016-03-22T09:18:20.954Z,3096
2016-03-22T09:19:20.864Z,3060
2016-03-22T09:20:21.726Z,2856
2016-03-22T09:21:22.321Z,2912
2016-03-22T09:22:20.684Z,3276
2016-03-22T09:23:20.671Z,3832
2016-03-22T09:24:21.080Z,4332
2016-03-22T09:25:20.395Z,4688
2016-03-22T09:26:20.914Z,4616
2016-03-22T09:27:20.760Z,4428
2016-03-22T09:28:22.434Z,4364
2016-03-22T09:29:22.109Z,4288
2016-03-22T09:30:20.362Z,3892
2016-03-22T09:31:20.959Z,3528
2016-03-22T09:32:20.492Z,3172
2016-03-22T09:33:21.011Z,3104
2016-03-22T09:34:34.170Z,3072
2016-03-22T09:35:20.187Z,3044
2016-03-22T09:36:23.066Z,3040
2016-03-22T09:37:20.318Z,3084
2016-03-22T09:38:47.977Z,3436
2016-03-22T09:39:20.636Z,3840
2016-03-22T09:40:24.170Z,4544
2016-03-22T09:41:20.158Z,4620
2016-03-22T09:43:20.413Z,5156
2016-03-22T09:44:20.274Z,5168
2016-03-22T09:45:20.887Z,4876
2016-03-22T09:46:20.686Z,4716
2016-03-22T09:47:20.392Z,4568
2016-03-22T09:48:19.879Z,4920
2016-03-22T09:49:19.929Z,4992
2016-03-22T09:50:20.135Z,4332
2016-03-22T09:51:20.496Z,3484
2016-03-22T09:52:20.171Z,3412
2016-03-22T09:53:19.830Z,4124
2016-03-22T09:54:19.738Z,4788
2016-03-22T09:55:19.789Z,5120
2016-03-22T09:56:19.635Z,5568
2016-03-22T09:57:20.060Z,5840
2016-03-22T09:58:19.890Z,5780
2016-03-22T09:59:19.565Z,5384
2016-03-22T10:00:20.099Z,4920
2016-03-22T10:01:50.851Z,3712
2016-03-22T10:02:20.354Z,3296
2016-03-22T10:03:47.513Z,2116
2016-03-22T10:04:33.265Z,1740
2016-03-22T10:05:19.488Z,1668
2016-03-22T10:06:19.506Z,1748
2016-03-22T10:07:19.398Z,1412
2016-03-22T10:08:19.652Z,1184
2016-03-22T10:09:20.686Z,1128
2016-03-22T10:10:19.501Z,1200
2016-03-22T10:11:19.441Z,1388
2016-03-22T10:12:19.897Z,1748
2016-03-22T10:13:19.212Z,2084
2016-03-22T10:14:19.247Z,2300
2016-03-22T10:15:19.577Z,1976
2016-03-22T10:16:19.111Z,1700
2016-03-22T10:17:19.441Z,1456
2016-03-22T10:18:19.288Z,1488
2016-03-22T10:19:19.181Z,1972
2016-03-22T10:20:19.621Z,2868
2016-03-22T10:21:19.436Z,4000
2016-03-22T10:22:19.627Z,5320
2016-03-22T10:23:19.129Z,5956
2016-03-22T10:24:18.132Z,6600
2016-03-22T10:25:18.994Z,7068
2016-03-22T10:26:18.904Z,7160
2016-03-22T10:27:19.468Z,7012
2016-03-22T10:28:19.534Z,6996
2016-03-22T10:29:19.474Z,7084
2016-03-22T10:30:19.773Z,6860
2016-03-22T10:31:19.042Z,6544
2016-03-22T10:32:19.123Z,6288
2016-03-22T10:33:19.187Z,6396
2016-03-22T10:34:19.190Z,6484
2016-03-22T10:35:20.443Z,6312
2016-03-22T10:36:19.274Z,5944
2016-03-22T10:37:18.651Z,5584
2016-03-22T10:38:18.857Z,5364
2016-03-22T10:39:33.110Z,5452
2016-03-22T10:40:20.237Z,5644
2016-03-22T10:41:18.630Z,6060
2016-03-22T10:42:18.883Z,6408
2016-03-22T10:43:19.511Z,6656
2016-03-22T10:44:18.670Z,6752
2016-03-22T10:45:19.267Z,6592
2016-03-22T10:46:33.847Z,6496
2016-03-22T10:47:19.022Z,6228
2016-03-22T10:48:18.994Z,5656
2016-03-22T10:49:18.512Z,5056
2016-03-22T10:50:19.139Z,4696
2016-03-22T10:51:18.673Z,4520
2016-03-22T10:52:20.238Z,4420
2016-03-22T10:53:18.772Z,4444
2016-03-22T10:54:20.322Z,4468
2016-03-22T10:55:18.263Z,4804
2016-03-22T10:56:19.280Z,4780
2016-03-22T10:57:32.440Z,3884
2016-03-22T10:58:18.207Z,3176
2016-03-22T10:59:18.758Z,3024
2016-03-22T11:00:18.666Z,2904
2016-03-22T11:01:18.809Z,2412
2016-03-22T11:02:18.313Z,2240
2016-03-22T11:03:19.391Z,2488
2016-03-22T11:04:19.529Z,2504
2016-03-22T11:05:18.806Z,2376
2016-03-22T11:06:18.974Z,2424
2016-03-22T11:07:21.831Z,2668
2016-03-22T11:08:18.250Z,2984
2016-03-22T11:09:18.438Z,3492
2016-03-22T11:10:18.064Z,4136
2016-03-22T11:11:17.939Z,4836
2016-03-22T11:12:19.377Z,5832
2016-03-22T11:13:18.971Z,6468
2016-03-22T11:14:18.052Z,6468
2016-03-22T11:15:18.242Z,6008
2016-03-22T11:16:17.914Z,5568
2016-03-22T11:17:19.448Z,5460
2016-03-22T11:18:18.013Z,5824
2016-03-22T11:19:17.561Z,6456
2016-03-22T11:20:18.532Z,6892
2016-03-22T11:21:18.082Z,6860
2016-03-22T11:22:17.552Z,6112
2016-03-22T11:23:17.915Z,5808
2016-03-22T11:24:17.871Z,6416
2016-03-22T11:25:17.904Z,6860
2016-03-22T11:26:17.376Z,6768
2016-03-22T11:27:17.910Z,6512
2016-03-22T11:28:17.725Z,5924
2016-03-22T11:29:19.696Z,5452
2016-03-22T11:30:17.667Z,5280
2016-03-22T11:31:17.515Z,5268
2016-03-22T11:32:18.189Z,5772
2016-03-22T11:33:27.629Z,6516
2016-03-22T11:34:17.381Z,7040
2016-03-22T11:35:17.306Z,7084
2016-03-22T11:36:20.450Z,6300
2016-03-22T11:37:17.359Z,5348
2016-03-22T11:38:19.392Z,4656
2016-03-22T11:39:20.207Z,4400
2016-03-22T11:40:31.914Z,4324
2016-03-22T11:41:17.226Z,4264
2016-03-22T11:42:17.307Z,4292
2016-03-22T11:43:17.247Z,4416
2016-03-22T11:44:17.203Z,4452
2016-03-22T11:45:17.739Z,4656
2016-03-22T11:46:17.318Z,4536
2016-03-22T11:47:17.102Z,4468
2016-03-22T11:48:30.810Z,4248
2016-03-22T11:49:19.531Z,4116
2016-03-22T11:50:18.097Z,4016
2016-03-22T11:51:18.584Z,4448
2016-03-22T11:54:19.029Z,4368
2016-03-22T11:55:17.876Z,4112
2016-03-22T11:56:17.298Z,4000
2016-03-22T11:57:17.285Z,4092
2016-03-22T11:58:17.587Z,4460
2016-03-22T13:00:14.688Z,6760
2016-03-22T13:01:15.065Z,6332
2016-03-22T13:02:14.850Z,5764
2016-03-22T13:03:14.853Z,5896
2016-03-22T13:04:27.405Z,6392
2016-03-22T13:05:14.467Z,6472
2016-03-22T13:06:14.392Z,6096
2016-03-22T13:07:14.478Z,5320
2016-03-22T13:08:12.667Z,4780
2016-03-22T13:09:13.640Z,4100
2016-03-22T13:10:13.580Z,3764
2016-03-22T13:11:13.692Z,3512
2016-03-22T13:12:14.303Z,3400
2016-03-22T13:13:13.666Z,3256
2016-03-22T13:14:13.294Z,3232
2016-03-22T13:15:12.749Z,3208
2016-03-22T13:16:14.127Z,2860
2016-03-22T13:17:13.442Z,2476
2016-03-22T13:19:13.244Z,2072
2016-03-22T13:20:13.888Z,2124
2016-03-22T13:21:13.640Z,2124
2016-03-22T13:22:13.065Z,2160
2016-03-22T13:23:13.068Z,2524
2016-03-22T13:24:13.351Z,2292
2016-03-22T13:25:13.104Z,2204
2016-03-22T13:26:13.481Z,2256
2016-03-22T13:27:13.376Z,2352
2016-03-22T13:28:13.534Z,2204
2016-03-22T13:29:13.256Z,1944
2016-03-22T13:30:13.368Z,1656
2016-03-22T13:31:13.136Z,1468
2016-03-22T13:32:26.689Z,1364
2016-03-22T13:33:12.876Z,1308
2016-03-22T13:34:13.019Z,1324
2016-03-22T13:35:12.944Z,1504
2016-03-22T13:36:13.664Z,1612
2016-03-22T13:37:12.809Z,1568
2016-03-22T13:38:12.639Z,1480
2016-03-22T13:39:12.767Z,1448
2016-03-22T13:41:12.616Z,1560
2016-03-22T13:42:13.478Z,1740
2016-03-22T13:43:12.794Z,1804
2016-03-22T13:44:12.953Z,1932
2016-03-22T13:45:12.486Z,1900
2016-03-22T13:46:12.426Z,1924
2016-03-22T13:47:12.757Z,1996
2016-03-22T13:48:13.541Z,2284
2016-03-22T13:49:12.888Z,2428
2016-03-22T13:50:13.063Z,2388
2016-03-22T13:51:13.971Z,2292
2016-03-22T13:52:26.243Z,2388
2016-03-22T13:53:11.774Z,2576
2016-03-22T13:55:12.560Z,3096
2016-03-22T13:56:26.378Z,2844
2016-03-22T13:57:12.862Z,2628
2016-03-22T13:58:12.349Z,2316
2016-03-22T13:59:12.367Z,2320
2016-03-22T14:00:12.699Z,2348
2016-03-22T14:01:12.795Z,2384
2016-03-22T14:02:11.595Z,2256
2016-03-22T14:03:11.394Z,2304
2016-03-22T14:04:12.272Z,2356
2016-03-22T14:05:13.212Z,2500
2016-03-22T14:06:12.605Z,2700
2016-03-22T14:07:12.170Z,2928
2016-03-22T14:08:12.392Z,2748
2016-03-22T14:09:12.191Z,2600
2016-03-22T14:10:12.679Z,2300
2016-03-22T14:11:11.837Z,2188
2016-03-22T14:12:13.075Z,2132
2016-03-22T14:13:12.014Z,1992
2016-03-22T14:14:11.939Z,1920
2016-03-22T14:15:12.114Z,1884
2016-03-22T14:16:12.022Z,1672
2016-03-22T14:17:11.869Z,1528
2016-03-22T14:18:12.481Z,1604
2016-03-22T14:19:11.844Z,1548
2016-03-22T14:20:11.721Z,1460
2016-03-22T14:21:11.739Z,1392
2016-03-22T14:22:11.710Z,1372
2016-03-22T14:23:14.980Z,1344
2016-03-22T14:24:12.138Z,1196
2016-03-22T14:25:11.703Z,1144
2016-03-22T14:26:11.877Z,1084
2016-03-22T14:27:12.193Z,956
2016-03-22T14:28:11.665Z,860
2016-03-22T14:29:12.010Z,856
2016-03-22T14:30:12.654Z,920
2016-03-22T14:31:11.750Z,1048
2016-03-22T14:32:11.643Z,1120
2016-03-22T14:33:28.164Z,1220
2016-03-22T14:34:11.977Z,1244
2016-03-22T14:35:12.074Z,1160
2016-03-22T14:37:12.548Z,1044
2016-03-22T14:38:11.847Z,1136
2016-03-22T14:39:13.287Z,1300
2016-03-22T14:40:11.775Z,1520
2016-03-22T14:41:12.042Z,1800
2016-03-22T14:42:12.921Z,1776
2016-03-22T14:43:15.127Z,1720
2016-03-22T14:44:11.332Z,1756
2016-03-22T14:45:12.148Z,1924
2016-03-22T14:46:25.059Z,2224
2016-03-22T14:47:11.591Z,2400
2016-03-22T14:48:12.327Z,2404
2016-03-22T14:49:11.346Z,2328
2016-03-22T14:50:11.114Z,2388
2016-03-22T14:51:11.819Z,2548
2016-03-22T14:52:11.839Z,1976
2016-03-22T14:53:11.232Z,1652
2016-03-22T14:54:11.390Z,1496
2016-03-22T14:55:10.643Z,1464
2016-03-22T14:56:11.677Z,1484
2016-03-22T14:57:11.460Z,1548
2016-03-22T14:58:11.026Z,1676
2016-03-22T14:59:11.762Z,1772
2016-03-22T15:00:11.798Z,1756
2016-03-22T15:01:11.018Z,1604
2016-03-22T15:02:24.759Z,1412
2016-03-22T15:03:11.102Z,1352
2016-03-22T15:04:11.948Z,1320
2016-03-22T15:05:11.279Z,1276
2016-03-22T15:06:11.204Z,1228
2016-03-22T15:07:24.740Z,1060
2016-03-22T15:08:10.881Z,1100
2016-03-22T15:09:11.961Z,1104
2016-03-22T15:10:10.903Z,1124
2016-03-22T15:11:24.423Z,1064
2016-03-22T15:12:10.939Z,1008
2016-03-22T15:13:10.520Z,908
2016-03-22T15:14:11.022Z,812
2016-03-22T15:15:10.728Z,756
2016-03-22T15:16:11.528Z,708
2016-03-22T15:17:13.234Z,656
2016-03-22T15:18:11.611Z,664
2016-03-22T15:19:23.351Z,708
2016-03-22T15:20:10.491Z,748
2016-03-22T15:21:10.697Z,832
2016-03-22T15:22:10.247Z,952
2016-03-22T15:23:24.596Z,1112
2016-03-22T15:24:10.752Z,1132
2016-03-22T15:25:10.411Z,1104
2016-03-22T15:26:10.289Z,1040
2016-03-22T15:27:10.698Z,1004
2016-03-22T15:28:10.169Z,976
2016-03-22T15:29:10.500Z,912
2016-03-22T15:30:10.253Z,908
2016-03-22T15:31:09.381Z,820
2016-03-22T15:32:10.601Z,816
2016-03-22T15:33:10.199Z,928
2016-03-22T15:34:10.060Z,1180
2016-03-22T15:35:13.438Z,1432
2016-03-22T15:36:10.175Z,1564
2016-03-22T15:37:10.225Z,1580
2016-03-22T15:38:10.181Z,1560
2016-03-22T15:39:09.964Z,1692
2016-03-22T15:40:10.108Z,1944
2016-03-22T15:41:10.720Z,2084
2016-03-22T15:42:10.035Z,2100
2016-03-22T15:43:09.241Z,2080
2016-03-22T15:44:09.759Z,2056
2016-03-22T15:45:13.231Z,1996
2016-03-22T15:46:10.889Z,1948
2016-03-22T15:47:26.832Z,2076
2016-03-22T15:48:10.254Z,2176
2016-03-22T15:49:09.960Z,2312
2016-03-22T15:50:10.369Z,2408
2016-03-22T15:51:09.902Z,2448
2016-03-22T15:52:11.328Z,2416
2016-03-22T15:53:23.646Z,2360
2016-03-22T15:54:09.802Z,2304
2016-03-22T15:55:09.758Z,2156
2016-03-22T15:56:09.557Z,1952
2016-03-22T15:57:08.888Z,1808
2016-03-22T15:58:09.719Z,1664
2016-03-22T15:59:09.877Z,1520
2016-03-22T16:00:09.552Z,1392
2016-03-22T16:01:09.383Z,1316
2016-03-22T16:02:09.667Z,1240
2016-03-22T16:03:09.748Z,1252
2016-03-22T16:04:09.265Z,1184
2016-03-22T16:05:09.565Z,1012
2016-03-22T16:06:09.928Z,852
2016-03-22T16:07:09.274Z,752
2016-03-22T16:08:09.230Z,704
2016-03-22T16:09:09.342Z,704
2016-03-22T16:10:09.313Z,704
2016-03-22T16:11:09.753Z,680
2016-03-22T16:12:09.272Z,624
2016-03-22T16:13:22.855Z,580
2016-03-22T16:14:09.058Z,564
2016-03-22T16:15:09.359Z,528
2016-03-22T16:16:09.470Z,492
2016-03-22T16:17:10.005Z,424
2016-03-22T16:18:09.210Z,312
2016-03-22T16:19:09.228Z,264
2016-03-22T16:20:09.684Z,248
2016-03-22T16:21:08.952Z,228
2016-03-22T16:22:09.221Z,212
2016-03-22T16:23:09.724Z,208
2016-03-22T16:24:08.835Z,216
2016-03-22T16:25:08.980Z,216
2016-03-22T16:26:09.138Z,224
2016-03-22T16:27:08.937Z,228
2016-03-22T16:28:08.768Z,244
2016-03-22T16:29:09.193Z,232
2016-03-22T16:30:08.882Z,196
2016-03-22T16:31:08.776Z,168
2016-03-22T16:32:08.794Z,144
2016-03-22T16:33:08.688Z,132
2016-03-22T16:34:08.753Z,116
2016-03-22T16:35:08.912Z,104
2016-03-22T16:36:08.509Z,100
2016-03-22T16:37:08.448Z,112
2016-03-22T16:38:08.420Z,132
2016-03-22T16:39:08.423Z,168
2016-03-22T16:40:08.488Z,212
2016-03-22T16:41:08.928Z,248
2016-03-22T16:42:08.383Z,252
2016-03-22T16:43:08.325Z,280
2016-03-22T16:44:08.702Z,272
2016-03-22T16:45:08.376Z,264
2016-03-22T16:46:08.551Z,244
2016-03-22T16:47:09.038Z,236
2016-03-22T16:48:08.416Z,220
2016-03-22T16:49:08.449Z,216
2016-03-22T16:50:08.578Z,216
2016-03-22T16:51:08.111Z,220
2016-03-22T16:52:08.066Z,212
2016-03-22T16:53:08.710Z,204
2016-03-22T16:54:08.150Z,184
2016-03-22T16:55:08.028Z,168
2016-03-22T16:56:08.297Z,160
2016-03-22T16:57:08.503Z,160
2016-03-22T16:58:08.193Z,164
2016-03-22T16:59:08.273Z,172
2016-03-22T17:00:22.716Z,184
2016-03-22T17:01:25.437Z,200
2016-03-22T17:02:09.468Z,216
2016-03-22T17:03:08.549Z,244
2016-03-22T17:04:08.631Z,244
2016-03-22T17:05:08.383Z,232
2016-03-22T17:06:07.854Z,220
2016-03-22T17:07:07.670Z,204
2016-03-22T17:08:07.938Z,192
2016-03-22T17:09:08.065Z,192
2016-03-22T17:10:07.178Z,188
2016-03-22T17:11:08.275Z,180
2016-03-22T17:12:06.948Z,164
2016-03-22T17:13:07.826Z,152
2016-03-22T17:14:07.595Z,152
2016-03-22T17:15:07.520Z,152
2016-03-22T17:16:06.881Z,152
2016-03-22T17:17:07.853Z,148
2016-03-22T17:18:07.575Z,144
2016-03-22T17:19:08.014Z,140
2016-03-22T17:20:07.720Z,116
2016-03-22T17:21:07.130Z,96
2016-03-22T17:22:07.694Z,84
2016-03-22T17:23:08.088Z,80
2016-03-22T17:24:07.935Z,84
2016-03-22T17:25:07.609Z,80
2016-03-22T17:26:07.502Z,80
2016-03-22T17:27:07.489Z,68
2016-03-22T17:28:10.289Z,52
2016-03-22T17:29:07.651Z,44
2016-03-22T17:30:07.232Z,40
2016-03-22T17:31:07.657Z,40
2016-03-22T17:32:07.096Z,36
2016-03-22T17:33:07.177Z,32
2016-03-22T17:34:07.273Z,32
2016-03-22T17:35:07.245Z,32
2016-03-22T17:36:07.279Z,28
2016-03-22T17:37:06.359Z,24
2016-03-22T17:38:07.159Z,20
2016-03-22T17:39:07.162Z,20
2016-03-22T17:40:07.102Z,20
2016-03-22T17:41:06.371Z,20
2016-03-22T17:42:06.998Z,16
2016-03-22T17:43:07.000Z,16
2016-03-22T17:44:07.753Z,16
2016-03-22T17:45:07.303Z,12
2016-03-22T17:46:06.994Z,12
2016-03-22T17:47:07.371Z,8
2016-03-22T17:48:07.031Z,8
2016-03-22T17:49:06.845Z,8
2016-03-22T17:50:07.160Z,8
2016-03-22T17:51:07.100Z,4
2016-03-22T17:52:06.994Z,4
2016-03-22T17:53:20.888Z,4
2016-03-22T17:54:06.624Z,4
2016-03-22T17:55:06.127Z,0
2016-03-22T17:56:06.927Z,0
2016-03-22T17:57:07.382Z,0
2016-03-22T17:58:10.167Z,4
2016-03-22T17:59:06.966Z,4
2016-03-22T18:00:06.938Z,0
2016-03-22T18:01:07.096Z,0
2016-03-22T18:02:07.037Z,0
2016-03-22T18:03:07.102Z,0
2016-03-22T18:04:06.417Z,0
2016-03-22T18:05:06.935Z,0
2016-03-22T18:06:06.391Z,0
2016-03-22T18:07:06.237Z,0
2016-03-22T18:08:06.490Z,0
2016-03-22T18:09:06.259Z,0
2016-03-22T18:10:06.214Z,0
2016-03-22T18:11:06.482Z,0
2016-03-22T18:12:06.657Z,0
2016-03-22T18:13:06.067Z,0
2016-03-22T18:14:06.131Z,0
2016-03-22T18:15:06.133Z,0
2016-03-22T18:16:06.450Z,0
2016-03-22T18:17:06.373Z,0
2016-03-22T18:18:06.048Z,0
2016-03-22T18:19:06.036Z,0
2016-03-22T18:20:06.100Z,0
2016-03-22T18:21:06.041Z,0
2016-03-22T18:22:06.340Z,0
2016-03-22T18:23:06.453Z,0
2016-03-22T18:24:06.174Z,0
2016-03-22T18:25:06.160Z,0
2016-03-22T18:26:06.008Z,0
2016-03-22T18:27:06.479Z,0
2016-03-22T18:28:06.028Z,0
2016-03-22T18:29:06.172Z,0
2016-03-22T18:30:06.049Z,0
2016-03-22T18:31:19.521Z,0
2016-03-22T18:32:06.663Z,0
2016-03-22T18:33:06.058Z,0
2016-03-22T18:34:08.701Z,0
2016-03-22T18:35:05.813Z,0
2016-03-22T18:36:05.581Z,0
2016-03-22T18:37:05.584Z,0
2016-03-22T18:38:05.540Z,0
2016-03-22T18:39:06.401Z,0
2016-03-22T18:40:05.514Z,0
2016-03-22T18:41:06.392Z,0
2016-03-22T18:42:05.644Z,0
2016-03-22T18:43:05.490Z,0
2016-03-22T18:44:05.695Z,0
2016-03-22T18:45:06.355Z,0
2016-03-22T18:46:05.467Z,0
2016-03-22T18:47:05.704Z,0
2016-03-22T18:48:05.301Z,0
2016-03-22T18:49:07.506Z,0
2016-03-22T18:50:05.244Z,0
2016-03-22T18:51:05.340Z,0
2016-03-22T18:52:05.436Z,0
2016-03-22T18:53:05.424Z,0
2016-03-22T18:54:04.380Z,0
2016-03-22T18:55:05.272Z,0
2016-03-22T18:56:05.494Z,0
2016-03-22T18:57:06.996Z,0
2016-03-22T18:58:05.530Z,0
2016-03-22T18:59:05.533Z,0
2016-03-22T19:00:05.177Z,0
2016-03-22T19:01:07.196Z,0
2016-03-22T19:02:05.229Z,0
2016-03-22T19:03:05.435Z,0
2016-03-22T19:04:05.140Z,0
2016-03-22T19:05:05.269Z,0
2016-03-22T19:06:06.427Z,0
2016-03-22T19:07:05.273Z,0
2016-03-22T19:08:04.980Z,0
2016-03-22T19:09:05.170Z,0
2016-03-22T19:10:05.157Z,0
2016-03-22T19:11:05.190Z,0
2016-03-22T19:12:05.287Z,0
2016-03-22T19:13:04.915Z,0
2016-03-22T19:14:04.887Z,0
2016-03-22T19:15:05.608Z,0
2016-03-22T19:16:05.689Z,0
2016-03-22T19:17:19.300Z,0
2016-03-22T19:18:05.084Z,0
2016-03-22T19:19:05.447Z,0
2016-03-22T19:20:04.699Z,0
2016-03-22T19:21:04.578Z,0
2016-03-22T19:22:06.127Z,0
2016-03-22T19:23:06.191Z,0
2016-03-22T19:24:04.788Z,0
2016-03-22T19:25:04.994Z,0
2016-03-22T19:26:04.919Z,0
2016-03-22T19:27:04.937Z,0
2016-03-22T19:28:04.814Z,0
2016-03-22T19:29:06.083Z,0
2016-03-22T19:30:05.663Z,0
2016-03-22T19:31:05.744Z,0
2016-03-22T19:32:04.341Z,0
2016-03-22T19:33:06.422Z,0
2016-03-22T19:34:03.409Z,0
2016-03-22T19:35:04.552Z,0
2016-03-22T19:36:04.446Z,0
2016-03-22T19:37:04.417Z,0
2016-03-22T19:38:04.576Z,0
2016-03-22T19:39:04.062Z,0
2016-03-22T19:40:04.035Z,0
2016-03-22T19:41:03.553Z,0
2016-03-22T19:42:05.009Z,0
2016-03-22T19:43:04.012Z,0
2016-03-22T19:44:03.936Z,0
2016-03-22T19:45:07.110Z,0
2016-03-22T19:46:04.223Z,0
2016-03-22T19:47:04.209Z,0
2016-03-22T19:48:04.400Z,0
2016-03-22T19:50:03.889Z,0
2016-03-22T19:51:04.158Z,0
2016-03-22T19:52:03.722Z,0
2016-03-22T19:53:04.836Z,0
2016-03-22T19:54:17.541Z,0
2016-03-22T19:55:04.106Z,0
2016-03-22T19:56:04.046Z,0
2016-03-22T19:57:04.236Z,0
2016-03-22T19:58:17.395Z,0
2016-03-22T19:59:03.976Z,0
2016-03-22T20:00:03.916Z,0
2016-03-22T20:01:03.763Z,0
2016-03-22T20:02:04.609Z,0
2016-03-22T20:03:03.768Z,0
2016-03-22T20:04:05.880Z,0
2016-03-22T20:05:04.211Z,0
2016-03-22T20:06:03.635Z,0
2016-03-22T20:07:03.623Z,0
2016-03-22T20:08:03.641Z,0
2016-03-22T20:09:03.362Z,0
2016-03-22T20:10:04.078Z,0
2016-03-22T20:11:03.300Z,0
2016-03-22T20:12:03.395Z,0
2016-03-22T20:13:03.289Z,0
2016-03-22T20:14:03.509Z,0
2016-03-22T20:15:03.218Z,0
2016-03-22T20:16:03.637Z,0
2016-03-22T20:18:03.583Z,0
2016-03-22T20:19:03.221Z,0
2016-03-22T20:20:03.173Z,0
2016-03-22T20:21:03.079Z,0
2016-03-22T20:22:03.532Z,0
2016-03-22T20:23:16.674Z,0
2016-03-22T20:24:03.142Z,0
2016-03-22T20:25:03.332Z,0
2016-03-22T20:26:02.974Z,0
2016-03-22T20:27:03.554Z,0
2016-03-22T20:28:03.149Z,0
2016-03-22T20:29:03.120Z,0
2016-03-22T20:30:02.794Z,0
2016-03-22T20:31:02.749Z,0
2016-03-22T20:32:03.173Z,0
2016-03-22T20:33:03.112Z,0
2016-03-22T20:34:16.975Z,0
2016-03-22T20:35:03.039Z,0
2016-03-22T20:36:02.714Z,0
2016-03-22T20:37:02.905Z,0
2016-03-22T20:38:01.673Z,0
2016-03-22T20:39:02.800Z,0
2016-03-22T20:40:03.444Z,0
2016-03-22T20:41:02.666Z,0
2016-03-22T20:42:04.558Z,0
2016-03-22T20:43:03.014Z,0
2016-03-22T20:44:02.627Z,0
2016-03-22T20:45:01.770Z,0
2016-03-22T20:46:02.835Z,0
2016-03-22T20:47:02.729Z,0
2016-03-22T20:48:03.138Z,0
2016-03-22T20:49:02.202Z,0
2016-03-22T20:50:02.721Z,0
2016-03-22T20:51:02.192Z,0
2016-03-22T20:52:02.477Z,0
2016-03-22T20:53:02.104Z,0
2016-03-22T20:54:02.310Z,0
2016-03-22T20:55:02.156Z,0
2016-03-22T20:56:02.206Z,0
2016-03-22T20:57:02.270Z,0
2016-03-22T20:58:02.602Z,0
2016-03-22T20:59:01.167Z,0
2016-03-22T21:00:03.123Z,0
2016-03-22T21:01:02.062Z,0
2016-03-22T21:02:02.206Z,0
2016-03-22T21:03:01.881Z,0
2016-03-22T21:04:02.180Z,0
2016-03-22T21:05:01.808Z,0
2016-03-22T21:06:01.966Z,0
2016-03-22T21:07:01.861Z,0
2016-03-22T21:08:01.816Z,0
2016-03-22T21:09:01.944Z,0
2016-03-22T21:10:02.087Z,0
2016-03-22T21:12:01.702Z,0
2016-03-22T21:13:01.469Z,0
2016-03-22T21:14:01.692Z,0
2016-03-22T21:15:01.600Z,0
2016-03-22T21:16:01.822Z,0
2016-03-22T21:17:01.527Z,0
2016-03-22T21:18:02.046Z,0
2016-03-22T21:19:01.533Z,0
2016-03-22T21:20:01.598Z,0
2016-03-22T21:21:01.321Z,0
2016-03-22T21:22:01.635Z,0
2016-03-22T21:23:01.856Z,0
2016-03-22T21:24:01.328Z,0
2016-03-22T21:25:01.331Z,0
2016-03-22T21:26:01.334Z,0
2016-03-22T21:27:01.727Z,0
2016-03-22T21:28:01.526Z,0
2016-03-22T21:29:01.451Z,0
2016-03-22T21:30:15.000Z,0
2016-03-22T21:31:01.269Z,0
2016-03-22T21:32:01.287Z,0
2016-03-22T21:33:01.087Z,0
2016-03-22T21:34:01.870Z,0
2016-03-22T21:35:01.092Z,0
2016-03-22T21:36:01.095Z,0
2016-03-22T21:37:01.894Z,0
2016-03-22T21:38:01.099Z,0
2016-03-22T21:39:00.946Z,0
2016-03-22T21:40:01.339Z,0
2016-03-22T21:41:02.280Z,0
2016-03-22T21:42:00.939Z,0
2016-03-22T21:43:14.676Z,0
2016-03-22T21:44:00.866Z,0
2016-03-22T21:45:00.946Z,0
2016-03-22T21:46:01.090Z,0
2016-03-22T21:47:00.733Z,0
2016-03-22T21:48:00.768Z,0
2016-03-22T21:49:00.723Z,0
2016-03-22T21:50:00.741Z,0
2016-03-22T21:51:00.776Z,0
2016-03-22T21:52:00.996Z,0
2016-03-22T21:53:00.875Z,0
2016-03-22T21:54:00.643Z,0
2016-03-22T21:55:00.708Z,0
2016-03-22T21:56:00.726Z,0
2016-03-22T21:57:00.573Z,0
2016-03-22T21:58:00.763Z,0
2016-03-22T21:59:00.453Z,0
2016-03-22T22:00:00.690Z,0
2016-03-22T22:01:01.067Z,0
2016-03-22T22:02:00.571Z,0
2016-03-22T22:03:00.386Z,0
2016-03-22T22:04:00.654Z,0
2016-03-22T22:05:00.392Z,0
2016-03-22T22:06:00.300Z,0
2016-03-22T22:07:00.584Z,0
2016-03-22T22:08:00.290Z,0
2016-03-22T22:09:00.309Z,0
2016-03-22T22:10:00.498Z,0
2016-03-22T22:11:00.408Z,0
2016-03-22T22:12:00.488Z,0
2016-03-22T22:13:00.366Z,0
2016-03-22T22:14:00.180Z,0
2016-03-22T22:15:00.481Z,0
2016-03-22T22:15:59.999Z,0
2016-03-22T22:17:00.033Z,0
2016-03-22T22:18:00.113Z,0
2016-03-22T22:19:00.054Z,0
2016-03-22T22:19:59.947Z,0
2016-03-22T22:21:00.324Z,0
2016-03-22T22:22:00.530Z,0
2016-03-22T22:22:59.845Z,0
2016-03-22T22:23:59.974Z,0
2016-03-22T22:24:59.898Z,0
2016-03-22T22:25:59.807Z,0
2016-03-22T22:26:59.873Z,0
2016-03-22T22:28:00.031Z,0
2016-03-22T22:28:59.784Z,0
2016-03-22T22:29:59.692Z,0
2016-03-22T22:30:59.790Z,0
2016-03-22T22:31:59.667Z,0
2016-03-22T22:32:59.591Z,0
2016-03-22T22:34:00.109Z,0
2016-03-22T22:34:59.644Z,0
2016-03-22T22:36:03.162Z,0
2016-03-22T22:37:03.212Z,0
2016-03-22T22:38:02.855Z,0
2016-03-22T22:39:03.076Z,0
2016-03-22T22:40:03.688Z,0
2016-03-22T22:41:03.223Z,0
2016-03-22T22:42:02.678Z,0
2016-03-22T22:43:02.822Z,0
2016-03-22T22:44:02.746Z,0
2016-03-22T22:45:03.139Z,0
2016-03-22T22:46:03.111Z,0
2016-03-22T22:47:02.488Z,0
2016-03-22T22:48:03.383Z,0
2016-03-22T22:49:03.135Z,0
2016-03-22T22:50:03.247Z,0
2016-03-22T22:52:03.393Z,0
2016-03-22T22:53:02.724Z,0
2016-03-22T22:54:02.773Z,0
2016-03-22T22:55:03.884Z,0
2016-03-22T22:56:02.826Z,0
2016-03-22T22:57:02.468Z,0
2016-03-22T22:58:03.549Z,0
2016-03-22T22:59:02.224Z,0
2016-03-22T23:00:01.727Z,0
2016-03-22T23:01:02.495Z,0
2016-03-22T23:02:02.278Z,0
2016-03-22T23:03:02.532Z,0
2016-03-22T23:04:02.940Z,0
2016-03-22T23:05:02.224Z,0
2016-03-22T23:06:02.477Z,0
2016-03-22T23:07:02.401Z,0
2016-03-22T23:08:01.389Z,0
2016-03-22T23:09:02.438Z,0
2016-03-22T23:10:02.692Z,0
2016-03-22T23:11:02.162Z,0
2016-03-22T23:12:03.181Z,0
2016-03-22T23:13:02.996Z,0
2016-03-22T23:14:02.061Z,0
2016-03-22T23:15:01.783Z,0
2016-03-22T23:16:01.207Z,0
2016-03-22T23:17:02.288Z,0
2016-03-22T23:18:01.963Z,0
2016-03-22T23:19:01.746Z,0
2016-03-22T23:20:01.203Z,0
2016-03-22T23:21:01.893Z,0
2016-03-22T23:22:02.239Z,0
2016-03-22T23:23:02.054Z,0
2016-03-22T23:24:02.291Z,0
2016-03-22T23:25:05.560Z,0
2016-03-22T23:26:00.593Z,0
2016-03-22T23:27:02.768Z,0
2016-03-22T23:28:01.832Z,0
2016-03-22T23:29:02.585Z,0
2016-03-22T23:30:02.276Z,0
2016-03-22T23:31:03.357Z,0
2016-03-22T23:32:02.219Z,0
2016-03-22T23:33:01.425Z,0
2016-03-22T23:34:00.895Z,0
2016-03-22T23:35:02.134Z,0
2016-03-22T23:36:02.151Z,0
2016-03-22T23:37:01.545Z,0
2016-03-22T23:38:00.844Z,0
2016-03-22T23:39:01.300Z,0
2016-03-22T23:40:00.459Z,0
2016-03-22T23:41:02.681Z,0
2016-03-22T23:42:00.231Z,0
2016-03-22T23:43:01.436Z,0
2016-03-22T23:44:01.330Z,0
2016-03-22T23:45:01.442Z,0
2016-03-22T23:46:01.428Z,0
2016-03-22T23:47:00.634Z,0
2016-03-22T23:48:04.371Z,0
2016-03-22T23:48:57.858Z,0
2016-03-22T23:50:00.955Z,0
2016-03-22T23:50:58.504Z,0
2016-03-22T23:51:58.539Z,0
2016-03-22T23:52:59.775Z,0
2016-03-22T23:53:58.840Z,0
2016-03-22T23:54:57.655Z,0
2016-03-22T23:55:57.580Z,0
2016-03-22T23:56:58.255Z,0
2016-03-22T23:57:57.695Z,0
2016-03-22T23:58:57.885Z,0
2016-03-22T23:59:57.668Z,0
